createdAt,value
2023-03-30T05:01:47.955Z,76019.00
2023-03-30T05:03:38.478Z,76030.84
2023-03-30T05:05:33.091Z,75947.81
2023-03-30T05:07:39.540Z,76050.63
2023-03-30T05:09:35.156Z,76072.38
2023-03-30T05:11:31.389Z,76013.06
2023-03-30T05:13:21.585Z,75896.41
2023-03-30T05:15:16.218Z,76015.03
2023-03-30T05:17:12.419Z,76007.13
2023-03-30T05:19:01.723Z,76060.50
2023-03-30T05:20:59.868Z,76098.06
2023-03-30T05:22:59.005Z,76092.16
2023-03-30T05:24:52.587Z,76133.66
2023-03-30T05:26:45.908Z,75985.38
2023-03-30T05:28:45.066Z,76135.63
2023-03-30T05:30:25.868Z,76022.94
2023-03-30T05:32:17.284Z,76034.81
2023-03-30T05:34:10.662Z,76028.88
2023-03-30T05:35:47.528Z,75924.09
2023-03-30T05:37:40.944Z,75961.66
2023-03-30T05:39:46.192Z,76074.34
2023-03-30T05:41:39.187Z,76096.09
2023-03-30T05:43:41.312Z,76070.41
2023-03-30T05:45:15.067Z,76074.34
2023-03-30T05:47:06.968Z,75963.63
2023-03-30T05:49:01.455Z,75852.91
2023-03-30T05:50:48.789Z,75912.22
2023-03-30T05:52:33.027Z,75967.59
2023-03-30T05:54:38.396Z,75848.97
2023-03-30T05:56:32.469Z,75939.91
2023-03-30T05:58:38.841Z,76034.81
2023-03-30T06:00:42.405Z,75981.44
2023-03-30T06:02:26.347Z,76036.78
2023-03-30T06:04:04.742Z,75975.50
2023-03-30T06:05:46.004Z,76005.16
2023-03-30T06:07:18.837Z,75959.69
2023-03-30T06:08:52.437Z,75884.56
2023-03-30T06:10:29.186Z,75977.47
2023-03-30T06:12:02.938Z,75939.91
2023-03-30T06:13:37.286Z,76105.97
2023-03-30T06:15:10.634Z,76105.97
2023-03-30T06:16:55.851Z,75995.25
2023-03-30T06:18:29.565Z,76074.34
2023-03-30T06:20:14.313Z,76076.31
2023-03-30T06:21:51.238Z,76090.16
2023-03-30T06:23:37.909Z,75991.31
2023-03-30T06:25:15.785Z,76060.50
2023-03-30T06:26:49.732Z,76066.44
2023-03-30T06:28:23.036Z,76084.22
2023-03-30T06:29:59.042Z,76030.84
2023-03-30T06:31:32.692Z,75993.28
2023-03-30T06:33:34.458Z,76082.25
2023-03-30T06:35:09.501Z,76137.63
2023-03-30T06:36:46.040Z,76135.63
2023-03-30T06:38:23.205Z,76139.59
2023-03-30T06:39:59.011Z,76189.03
2023-03-30T06:41:32.457Z,76179.13
2023-03-30T06:43:07.930Z,76228.56
2023-03-30T06:44:40.852Z,76177.16
2023-03-30T06:46:19.312Z,76187.03
2023-03-30T06:47:55.077Z,76222.63
2023-03-30T06:49:28.669Z,76329.41
2023-03-30T06:51:21.429Z,76398.63
2023-03-30T06:52:55.001Z,76378.84
2023-03-30T06:54:28.989Z,76410.47
2023-03-30T06:56:11.833Z,76477.72
2023-03-30T06:57:59.799Z,76394.66
2023-03-30T06:59:35.448Z,76345.22
2023-03-30T07:01:40.244Z,76366.97
2023-03-30T07:03:31.493Z,76376.88
2023-03-30T07:05:18.589Z,76386.75
2023-03-30T07:07:29.921Z,76382.78
2023-03-30T07:09:04.726Z,76398.63
2023-03-30T07:10:38.357Z,76465.84
2023-03-30T07:12:13.738Z,76453.97
2023-03-30T07:13:46.385Z,76422.34
2023-03-30T07:15:19.598Z,76471.78
2023-03-30T07:16:53.564Z,76552.84
2023-03-30T07:18:26.808Z,76414.44
2023-03-30T07:19:59.873Z,76418.38
2023-03-30T07:21:35.501Z,76426.28
2023-03-30T07:23:09.243Z,76372.91
2023-03-30T07:24:42.201Z,76323.47
2023-03-30T07:26:15.856Z,76335.34
2023-03-30T07:27:58.975Z,76313.59
2023-03-30T07:29:32.983Z,76378.84
2023-03-30T07:31:11.433Z,76394.66
2023-03-30T07:32:51.203Z,76533.06
2023-03-30T07:34:25.428Z,76422.34
2023-03-30T07:36:03.776Z,76416.41
2023-03-30T07:37:40.222Z,76410.47
2023-03-30T07:39:13.400Z,76483.63
2023-03-30T07:40:49.024Z,76483.63
2023-03-30T07:42:25.905Z,76515.28
2023-03-30T07:43:59.504Z,76487.59
2023-03-30T07:45:32.747Z,76483.63
2023-03-30T07:47:07.255Z,76485.63
2023-03-30T07:48:42.526Z,76493.53
2023-03-30T07:50:16.697Z,76434.19
2023-03-30T07:51:50.160Z,76422.34
2023-03-30T07:53:33.742Z,76444.09
2023-03-30T07:55:09.266Z,76416.41
2023-03-30T07:56:54.931Z,76390.69
2023-03-30T07:58:29.356Z,76341.28
2023-03-30T08:00:02.584Z,76307.66
2023-03-30T08:02:13.196Z,76339.28
2023-03-30T08:03:56.497Z,76351.16
2023-03-30T08:05:30.234Z,76335.34
2023-03-30T08:07:24.743Z,76339.28
2023-03-30T08:09:01.906Z,76295.78
2023-03-30T08:10:35.854Z,76283.94
2023-03-30T08:12:08.943Z,76305.69
2023-03-30T08:13:42.328Z,76307.66
2023-03-30T08:15:15.675Z,76276.03
2023-03-30T08:16:48.705Z,76335.34
2023-03-30T08:18:22.081Z,76315.56
2023-03-30T08:19:56.608Z,76319.53
2023-03-30T08:21:29.648Z,76309.63
2023-03-30T08:23:03.263Z,76309.63
2023-03-30T08:24:36.428Z,76299.75
2023-03-30T08:26:09.853Z,76246.38
2023-03-30T08:27:43.315Z,76187.03
2023-03-30T08:29:17.381Z,76157.38
2023-03-30T08:30:51.146Z,76224.63
2023-03-30T08:32:24.522Z,76216.72
2023-03-30T08:33:57.535Z,76244.38
2023-03-30T08:35:30.780Z,76191.00
2023-03-30T08:37:04.599Z,76254.28
2023-03-30T08:38:38.278Z,76270.09
2023-03-30T08:40:18.641Z,76299.75
2023-03-30T08:42:22.476Z,76270.09
2023-03-30T08:44:01.494Z,76236.47
2023-03-30T08:45:42.513Z,76264.16
2023-03-30T08:47:26.448Z,76224.63
2023-03-30T08:49:03.175Z,76244.38
2023-03-30T08:50:37.123Z,76212.75
2023-03-30T08:52:20.509Z,76200.88
2023-03-30T08:54:19.946Z,76177.16
2023-03-30T08:56:15.828Z,76127.72
2023-03-30T08:57:52.753Z,76157.38
2023-03-30T08:59:28.877Z,76143.56
2023-03-30T09:01:17.168Z,76141.56
2023-03-30T09:02:57.866Z,76104.00
2023-03-30T09:04:40.457Z,76129.72
2023-03-30T09:06:23.557Z,76139.59
2023-03-30T09:08:30.023Z,76147.50
2023-03-30T09:10:04.357Z,76161.34
2023-03-30T09:11:38.276Z,76161.34
2023-03-30T09:13:16.576Z,76173.22
2023-03-30T09:14:58.659Z,76171.22
2023-03-30T09:16:46.861Z,76191.00
2023-03-30T09:18:39.855Z,76149.47
2023-03-30T09:20:21.522Z,76169.25
2023-03-30T09:21:56.426Z,76214.72
2023-03-30T09:23:32.500Z,76240.44
2023-03-30T09:25:39.176Z,76272.06
2023-03-30T09:27:27.415Z,76295.78
2023-03-30T09:29:18.055Z,76248.34
2023-03-30T09:31:03.271Z,76230.53
2023-03-30T09:32:50.132Z,76240.44
2023-03-30T09:34:30.108Z,76244.38
2023-03-30T09:36:52.068Z,76246.38
2023-03-30T09:38:25.465Z,76258.22
2023-03-30T09:39:59.352Z,76260.22
2023-03-30T09:41:35.160Z,76311.63
2023-03-30T09:43:47.146Z,76270.09
2023-03-30T09:45:33.269Z,76248.34
2023-03-30T09:47:28.070Z,76252.28
2023-03-30T09:49:16.419Z,76236.47
2023-03-30T09:50:49.571Z,76248.34
2023-03-30T09:52:26.490Z,76285.91
2023-03-30T09:54:05.115Z,76230.53
2023-03-30T09:55:38.683Z,76246.38
2023-03-30T09:57:30.791Z,76248.34
2023-03-30T09:59:31.247Z,76258.22
2023-03-30T10:01:13.395Z,76325.44
2023-03-30T10:02:58.970Z,76254.28
2023-03-30T10:04:32.004Z,76232.53
2023-03-30T10:06:13.447Z,76272.06
2023-03-30T10:07:54.511Z,76274.03
2023-03-30T10:09:27.939Z,76279.97
2023-03-30T10:11:02.485Z,76258.22
2023-03-30T10:12:35.882Z,76258.22
2023-03-30T10:14:26.504Z,76274.03
2023-03-30T10:16:26.462Z,76297.78
2023-03-30T10:18:19.700Z,76236.47
2023-03-30T10:20:28.721Z,76232.53
2023-03-30T10:22:04.764Z,76222.63
2023-03-30T10:23:43.018Z,76212.75
2023-03-30T10:25:24.094Z,76204.84
2023-03-30T10:27:00.241Z,76228.56
2023-03-30T10:28:34.867Z,76242.41
2023-03-30T10:30:12.324Z,76236.47
2023-03-30T10:31:48.325Z,76214.72
2023-03-30T10:33:21.614Z,76181.13
2023-03-30T10:34:57.376Z,76187.03
2023-03-30T10:36:39.014Z,76252.28
2023-03-30T10:38:13.930Z,76266.13
2023-03-30T10:39:49.722Z,76307.66
2023-03-30T10:41:24.496Z,76313.59
2023-03-30T10:42:58.632Z,76323.47
2023-03-30T10:44:45.508Z,76315.56
2023-03-30T10:46:24.776Z,76307.66
2023-03-30T10:48:17.027Z,76323.47
2023-03-30T10:50:03.122Z,76301.72
2023-03-30T10:52:05.253Z,76303.69
2023-03-30T10:53:45.283Z,76301.72
2023-03-30T10:55:42.002Z,76295.78
2023-03-30T10:57:18.637Z,76333.38
2023-03-30T10:59:18.855Z,76317.53
2023-03-30T11:01:25.109Z,76278.00
2023-03-30T11:03:11.175Z,76293.81
2023-03-30T11:04:48.370Z,76268.13
2023-03-30T11:06:38.752Z,76256.25
2023-03-30T11:08:35.340Z,76216.72
2023-03-30T11:10:29.739Z,76206.81
2023-03-30T11:12:08.093Z,76208.78
2023-03-30T11:13:45.710Z,76189.03
2023-03-30T11:15:22.310Z,76196.94
2023-03-30T11:17:09.309Z,76161.34
2023-03-30T11:18:55.412Z,76183.09
2023-03-30T11:20:42.082Z,76175.19
2023-03-30T11:22:36.728Z,76189.03
2023-03-30T11:24:19.971Z,76228.56
2023-03-30T11:25:52.672Z,76236.47
2023-03-30T11:27:43.657Z,76264.16
2023-03-30T11:29:47.458Z,76212.75
2023-03-30T11:32:03.518Z,76212.75
2023-03-30T11:33:46.889Z,76234.50
2023-03-30T11:35:20.316Z,76236.47
2023-03-30T11:37:07.352Z,76242.41
2023-03-30T11:39:00.222Z,76230.53
2023-03-30T11:40:45.247Z,76244.38
2023-03-30T11:42:27.363Z,76256.25
2023-03-30T11:44:00.273Z,76270.09
2023-03-30T11:45:51.352Z,76226.59
2023-03-30T11:47:34.814Z,76210.78
2023-03-30T11:49:24.147Z,76208.78
2023-03-30T11:51:06.708Z,76173.22
2023-03-30T11:53:31.334Z,76171.22
2023-03-30T11:55:47.918Z,76191.00
2023-03-30T11:57:42.334Z,76214.72
2023-03-30T11:59:29.856Z,76173.22
2023-03-30T12:01:45.823Z,76232.53
2023-03-30T12:03:40.331Z,76192.97
2023-03-30T12:05:37.808Z,76218.69
2023-03-30T12:07:22.771Z,76238.47
2023-03-30T12:09:11.349Z,76218.69
2023-03-30T12:10:51.980Z,76185.06
2023-03-30T12:12:39.457Z,76173.22
2023-03-30T12:14:27.582Z,76200.88
2023-03-30T12:16:18.038Z,76181.13
2023-03-30T12:17:53.367Z,76204.84
2023-03-30T12:19:55.195Z,76224.63
2023-03-30T12:21:36.572Z,76226.59
2023-03-30T12:23:33.647Z,76214.72
2023-03-30T12:25:28.137Z,76242.41
2023-03-30T12:27:05.451Z,76228.56
2023-03-30T12:29:04.969Z,76228.56
2023-03-30T12:30:55.281Z,76315.56
2023-03-30T12:32:30.673Z,76220.66
2023-03-30T12:34:08.388Z,76212.75
2023-03-30T12:35:49.619Z,76242.41
2023-03-30T12:37:28.935Z,76264.16
2023-03-30T12:39:05.934Z,76240.44
2023-03-30T12:40:46.677Z,76230.53
2023-03-30T12:42:35.134Z,76303.69
2023-03-30T12:44:36.775Z,76258.22
2023-03-30T12:46:20.360Z,76268.13
2023-03-30T12:47:56.207Z,76260.22
2023-03-30T12:49:39.437Z,76246.38
2023-03-30T12:51:32.220Z,76291.84
2023-03-30T12:53:17.560Z,76276.03
2023-03-30T12:55:17.023Z,76279.97
2023-03-30T12:57:36.911Z,76307.66
2023-03-30T12:59:25.136Z,76319.53
2023-03-30T13:01:28.480Z,76297.78
2023-03-30T13:03:24.001Z,76279.97
2023-03-30T13:04:58.639Z,76289.88
2023-03-30T13:06:33.864Z,76307.66
2023-03-30T13:08:16.451Z,76327.44
2023-03-30T13:09:59.693Z,76345.22
2023-03-30T13:11:53.663Z,76366.97
2023-03-30T13:13:49.693Z,76366.97
2023-03-30T13:15:46.696Z,76370.94
2023-03-30T13:17:20.743Z,76388.72
2023-03-30T13:18:56.104Z,76406.53
2023-03-30T13:20:56.750Z,76422.34
2023-03-30T13:22:32.147Z,76416.41
2023-03-30T13:24:25.098Z,76414.44
2023-03-30T13:26:34.659Z,76398.63
2023-03-30T13:28:37.165Z,76392.69
2023-03-30T13:30:10.016Z,76404.53
2023-03-30T13:31:46.345Z,76386.75
2023-03-30T13:33:24.667Z,76398.63
2023-03-30T13:35:21.942Z,76402.56
2023-03-30T13:37:09.959Z,76390.69
2023-03-30T13:39:02.368Z,76434.19
2023-03-30T13:41:11.509Z,76390.69
2023-03-30T13:42:59.375Z,76378.84
2023-03-30T13:45:00.174Z,76422.34
2023-03-30T13:46:56.752Z,76418.38
2023-03-30T13:48:49.963Z,76440.13
2023-03-30T13:50:26.524Z,76469.78
2023-03-30T13:52:09.528Z,76570.63
2023-03-30T13:53:48.930Z,76485.63
2023-03-30T13:55:32.527Z,76477.72
2023-03-30T13:57:19.873Z,76477.72
2023-03-30T13:59:04.459Z,76489.56
2023-03-30T14:00:48.059Z,76483.63
2023-03-30T14:02:23.558Z,76493.53
2023-03-30T14:03:58.858Z,76497.47
2023-03-30T14:05:34.906Z,76503.41
2023-03-30T14:07:19.368Z,76513.28
2023-03-30T14:09:10.811Z,76513.28
2023-03-30T14:10:49.232Z,76513.28
2023-03-30T14:12:22.680Z,76629.97
2023-03-30T14:13:56.023Z,76540.97
2023-03-30T14:15:37.559Z,76537.03
2023-03-30T14:17:22.376Z,76592.41
2023-03-30T14:19:26.938Z,76544.94
2023-03-30T14:21:03.783Z,76554.81
2023-03-30T14:22:44.593Z,76558.78
2023-03-30T14:24:31.969Z,76576.56
2023-03-30T14:26:13.586Z,76584.47
2023-03-30T14:27:46.984Z,76596.34
2023-03-30T14:29:31.389Z,76588.44
2023-03-30T14:31:13.440Z,76598.31
2023-03-30T14:32:46.600Z,76612.16
2023-03-30T14:34:28.787Z,76631.94
2023-03-30T14:36:02.913Z,76639.84
2023-03-30T14:37:37.738Z,76637.88
2023-03-30T14:39:10.659Z,76647.75
2023-03-30T14:40:44.249Z,76651.72
2023-03-30T14:42:26.059Z,76651.72
2023-03-30T14:44:05.895Z,76651.72
2023-03-30T14:45:39.399Z,76659.63
2023-03-30T14:47:12.802Z,76667.53
2023-03-30T14:48:50.479Z,76703.13
2023-03-30T14:50:24.489Z,76679.41
2023-03-30T14:52:09.925Z,76685.34
2023-03-30T14:53:43.328Z,76699.19
2023-03-30T14:55:24.990Z,76681.38
2023-03-30T14:57:02.091Z,76687.31
2023-03-30T14:58:35.334Z,76695.22
2023-03-30T15:00:17.955Z,76693.25
2023-03-30T15:01:51.869Z,76691.25
2023-03-30T15:03:33.827Z,76697.19
2023-03-30T15:05:09.678Z,76703.13
2023-03-30T15:06:44.150Z,76726.84
2023-03-30T15:08:26.153Z,76730.81
2023-03-30T15:10:01.092Z,76746.63
2023-03-30T15:11:38.695Z,76750.59
2023-03-30T15:13:23.808Z,76758.50
2023-03-30T15:15:01.858Z,76756.53
2023-03-30T15:16:37.502Z,76760.47
2023-03-30T15:18:21.197Z,76766.41
2023-03-30T15:19:56.254Z,76766.41
2023-03-30T15:21:32.807Z,76770.38
2023-03-30T15:23:05.715Z,76802.00
2023-03-30T15:24:38.929Z,76770.38
2023-03-30T15:26:13.461Z,76782.22
2023-03-30T15:28:11.162Z,76784.22
2023-03-30T15:29:45.425Z,76794.09
2023-03-30T15:31:19.717Z,76800.03
2023-03-30T15:32:56.899Z,76786.19
2023-03-30T15:34:30.423Z,76782.22
2023-03-30T15:36:40.105Z,76766.41
2023-03-30T15:38:17.253Z,76778.28
2023-03-30T15:39:50.585Z,76902.84
2023-03-30T15:41:43.023Z,76774.31
2023-03-30T15:43:27.916Z,76772.34
2023-03-30T15:45:13.484Z,76782.22
2023-03-30T15:46:49.190Z,76788.16
2023-03-30T15:48:29.409Z,76788.16
2023-03-30T15:50:02.916Z,76809.91
2023-03-30T15:51:40.478Z,76794.09
2023-03-30T15:53:21.510Z,76794.09
2023-03-30T15:54:56.055Z,76802.00
2023-03-30T15:56:40.001Z,76809.91
2023-03-30T15:58:17.858Z,76811.88
2023-03-30T16:00:09.079Z,76825.72
2023-03-30T16:01:51.875Z,76825.72
2023-03-30T16:03:40.722Z,76837.59
2023-03-30T16:05:20.062Z,76835.63
2023-03-30T16:06:53.222Z,76837.59
2023-03-30T16:08:26.306Z,76849.47
2023-03-30T16:09:59.957Z,76865.28
2023-03-30T16:11:33.579Z,76861.34
2023-03-30T16:13:07.432Z,76875.16
2023-03-30T16:14:42.415Z,76889.00
2023-03-30T16:16:19.197Z,76892.97
2023-03-30T16:17:52.771Z,76892.97
2023-03-30T16:19:26.069Z,76908.78
2023-03-30T16:20:59.015Z,76910.75
2023-03-30T16:22:31.832Z,76908.78
2023-03-30T16:24:04.929Z,76946.38
2023-03-30T16:25:44.669Z,76920.66
2023-03-30T16:27:17.862Z,76932.53
2023-03-30T16:28:52.710Z,76938.44
2023-03-30T16:30:30.162Z,76940.44
2023-03-30T16:32:03.411Z,76964.16
2023-03-30T16:33:36.875Z,76972.06
2023-03-30T16:35:10.365Z,76966.13
2023-03-30T16:36:44.487Z,76958.22
2023-03-30T16:38:18.356Z,76976.03
2023-03-30T16:39:51.781Z,76978.00
2023-03-30T16:41:25.179Z,76981.97
2023-03-30T16:42:59.601Z,76972.06
2023-03-30T16:44:32.723Z,76981.97
2023-03-30T16:46:06.301Z,76987.88
2023-03-30T16:47:39.639Z,76991.84
2023-03-30T16:49:14.712Z,77003.72
2023-03-30T16:50:52.982Z,77003.72
2023-03-30T16:52:26.035Z,77005.69
2023-03-30T16:53:59.469Z,77013.59
2023-03-30T16:55:33.368Z,77019.53
2023-03-30T16:57:09.318Z,77027.44
2023-03-30T16:58:43.272Z,77021.50
2023-03-30T17:00:18.728Z,77035.34
2023-03-30T17:01:52.800Z,77035.34
2023-03-30T17:03:26.034Z,77049.19
2023-03-30T17:05:00.379Z,77049.19
2023-03-30T17:06:33.740Z,77047.22
2023-03-30T17:08:23.903Z,77055.13
2023-03-30T17:09:57.090Z,77063.03
2023-03-30T17:11:30.098Z,77055.13
2023-03-30T17:13:03.100Z,77051.19
2023-03-30T17:14:37.200Z,77061.06
2023-03-30T17:16:17.052Z,77063.03
2023-03-30T17:17:51.300Z,77068.97
2023-03-30T17:19:28.699Z,77078.88
2023-03-30T17:21:02.893Z,77114.47
2023-03-30T17:22:36.188Z,77094.69
2023-03-30T17:24:10.375Z,77082.81
2023-03-30T17:25:45.258Z,77078.88
2023-03-30T17:27:21.090Z,77094.69
2023-03-30T17:28:54.016Z,77090.72
2023-03-30T17:30:30.949Z,77094.69
2023-03-30T17:32:06.965Z,77096.66
2023-03-30T17:33:39.908Z,77098.63
2023-03-30T17:35:13.082Z,77090.72
2023-03-30T17:36:45.957Z,77088.75
2023-03-30T17:38:19.496Z,77104.56
2023-03-30T17:39:52.424Z,77108.53
2023-03-30T17:41:25.641Z,77102.59
2023-03-30T17:42:58.624Z,77110.50
2023-03-30T17:44:33.026Z,77114.47
2023-03-30T17:46:06.932Z,77116.44
2023-03-30T17:47:40.226Z,77159.94
2023-03-30T17:49:17.803Z,77118.41
2023-03-30T17:50:51.750Z,77108.53
2023-03-30T17:52:30.397Z,77118.41
2023-03-30T17:54:04.119Z,77124.34
2023-03-30T17:55:37.142Z,77124.34
2023-03-30T17:57:11.117Z,77134.25
2023-03-30T17:58:44.324Z,77146.09
2023-03-30T18:00:43.992Z,77148.09
2023-03-30T18:02:17.749Z,77148.09
2023-03-30T18:03:50.927Z,77140.16
2023-03-30T18:05:26.798Z,77132.25
2023-03-30T18:06:59.849Z,77142.16
2023-03-30T18:08:33.473Z,77189.59
2023-03-30T18:10:20.677Z,77132.25
2023-03-30T18:11:53.818Z,77130.28
2023-03-30T18:13:28.986Z,77130.28
2023-03-30T18:15:02.232Z,77144.13
2023-03-30T18:16:40.376Z,77148.09
2023-03-30T18:18:14.319Z,77154.00
2023-03-30T18:19:47.284Z,77157.97
2023-03-30T18:21:22.898Z,77163.91
2023-03-30T18:22:55.941Z,77165.88
2023-03-30T18:24:29.264Z,77161.94
2023-03-30T18:26:04.166Z,77169.84
2023-03-30T18:27:37.746Z,77161.94
2023-03-30T18:29:20.660Z,77157.97
2023-03-30T18:30:55.878Z,77157.97
2023-03-30T18:32:37.227Z,77163.91
2023-03-30T18:34:20.322Z,77159.94
2023-03-30T18:36:05.278Z,77165.88
2023-03-30T18:37:39.119Z,77161.94
2023-03-30T18:39:20.246Z,77165.88
2023-03-30T18:40:58.598Z,77173.78
2023-03-30T18:42:31.715Z,77165.88
2023-03-30T18:44:06.096Z,77163.91
2023-03-30T18:45:41.391Z,77165.88
2023-03-30T18:47:14.425Z,77165.88
2023-03-30T18:48:47.550Z,77161.94
2023-03-30T18:50:33.642Z,77169.84
2023-03-30T18:52:06.499Z,77167.84
2023-03-30T18:53:39.917Z,77171.81
2023-03-30T18:55:13.854Z,77177.75
2023-03-30T18:56:48.163Z,77177.75
2023-03-30T18:58:24.541Z,77177.75
2023-03-30T18:59:57.642Z,77181.69
2023-03-30T19:01:30.919Z,77181.69
2023-03-30T19:03:04.912Z,77175.78
2023-03-30T19:04:37.911Z,77177.75
2023-03-30T19:06:16.295Z,77181.69
2023-03-30T19:07:49.612Z,77187.63
2023-03-30T19:09:32.929Z,77193.56
2023-03-30T19:11:19.124Z,77264.75
2023-03-30T19:12:53.841Z,77201.47
2023-03-30T19:14:26.545Z,77217.31
2023-03-30T19:16:00.484Z,77201.47
2023-03-30T19:17:33.754Z,77213.34
2023-03-30T19:19:07.812Z,77203.47
2023-03-30T19:20:41.976Z,77209.38
2023-03-30T19:22:15.291Z,77221.25
2023-03-30T19:23:48.601Z,77217.31
2023-03-30T19:25:23.423Z,77225.22
2023-03-30T19:26:56.342Z,77237.06
2023-03-30T19:28:29.327Z,77243.00
2023-03-30T19:30:02.253Z,77229.16
2023-03-30T19:31:36.887Z,77246.97
2023-03-30T19:33:12.686Z,77243.00
2023-03-30T19:34:46.429Z,77248.94
2023-03-30T19:36:23.280Z,77262.78
2023-03-30T19:37:58.350Z,77278.59
2023-03-30T19:39:31.581Z,77282.56
2023-03-30T19:41:05.332Z,77296.41
2023-03-30T19:42:38.817Z,77300.38
2023-03-30T19:44:11.780Z,77300.38
2023-03-30T19:45:44.374Z,77296.41
2023-03-30T19:47:17.231Z,77300.38
2023-03-30T19:48:50.706Z,77296.41
2023-03-30T19:50:25.534Z,77300.38
2023-03-30T19:51:58.985Z,77296.41
2023-03-30T19:53:31.864Z,77294.44
2023-03-30T19:55:05.959Z,77280.59
2023-03-30T19:56:41.835Z,77274.66
2023-03-30T19:58:15.331Z,77268.72
2023-03-30T19:59:49.577Z,77266.75
2023-03-30T20:01:23.262Z,77262.78
2023-03-30T20:02:56.862Z,77256.84
2023-03-30T20:04:30.028Z,77272.69
2023-03-30T20:06:03.507Z,77256.84
2023-03-30T20:07:38.090Z,77245.00
2023-03-30T20:09:10.925Z,77245.00
2023-03-30T20:10:46.978Z,77245.00
2023-03-30T20:12:20.130Z,77241.03
2023-03-30T20:13:54.207Z,77235.09
2023-03-30T20:15:27.106Z,77241.03
2023-03-30T20:17:00.828Z,77215.31
2023-03-30T20:18:35.915Z,77233.13
2023-03-30T20:20:13.902Z,77189.59
2023-03-30T20:21:46.792Z,77171.81
2023-03-30T20:23:19.813Z,77161.94
2023-03-30T20:24:52.845Z,77157.97
2023-03-30T20:26:26.800Z,77152.03
2023-03-30T20:27:59.676Z,77165.88
2023-03-30T20:29:32.210Z,77163.91
2023-03-30T20:31:05.174Z,77173.78
2023-03-30T20:32:41.493Z,77193.56
2023-03-30T20:34:15.938Z,77201.47
2023-03-30T20:35:53.925Z,77193.56
2023-03-30T20:37:27.443Z,77201.47
2023-03-30T20:39:01.322Z,77201.47
2023-03-30T20:40:34.435Z,77211.38
2023-03-30T20:42:08.782Z,77209.38
2023-03-30T20:43:55.678Z,77213.34
2023-03-30T20:45:31.042Z,77213.34
2023-03-30T20:47:04.680Z,77203.47
2023-03-30T20:48:40.282Z,77195.53
2023-03-30T20:50:13.283Z,77199.50
2023-03-30T20:51:46.768Z,77181.69
2023-03-30T20:53:19.875Z,77187.63
2023-03-30T20:54:53.040Z,77181.69
2023-03-30T20:56:28.224Z,77187.63
2023-03-30T20:58:01.319Z,77183.69
2023-03-30T20:59:34.185Z,77156.00
2023-03-30T21:01:19.341Z,77152.03
2023-03-30T21:02:52.451Z,77165.88
2023-03-30T21:04:27.716Z,77179.72
2023-03-30T21:06:16.733Z,77169.84
2023-03-30T21:07:50.230Z,77179.72
2023-03-30T21:09:23.559Z,77199.50
2023-03-30T21:10:57.222Z,77187.63
2023-03-30T21:12:30.665Z,77171.81
2023-03-30T21:14:03.685Z,77191.59
2023-03-30T21:15:36.331Z,77193.56
2023-03-30T21:17:09.589Z,77181.69
2023-03-30T21:18:42.801Z,77179.72
2023-03-30T21:20:16.752Z,77189.59
2023-03-30T21:21:49.762Z,77201.47
2023-03-30T21:23:25.718Z,77209.38
2023-03-30T21:24:58.486Z,77201.47
2023-03-30T21:26:31.319Z,77205.44
2023-03-30T21:28:04.176Z,77205.44
2023-03-30T21:29:37.058Z,77199.50
2023-03-30T21:31:12.511Z,77187.63
2023-03-30T21:32:45.673Z,77197.53
2023-03-30T21:34:19.318Z,77209.38
2023-03-30T21:35:54.116Z,77219.28
2023-03-30T21:37:27.200Z,77239.06
2023-03-30T21:39:01.087Z,77260.81
2023-03-30T21:40:34.165Z,77328.06
2023-03-30T21:42:08.457Z,77264.75
2023-03-30T21:43:44.556Z,77272.69
2023-03-30T21:45:18.122Z,77292.44
2023-03-30T21:46:51.441Z,77306.28
2023-03-30T21:48:27.060Z,77314.22
2023-03-30T21:50:04.975Z,77312.22
2023-03-30T21:51:38.224Z,77332.00
2023-03-30T21:53:10.903Z,77320.13
2023-03-30T21:54:43.785Z,77334.00
2023-03-30T21:56:18.217Z,77332.00
2023-03-30T21:57:53.678Z,77312.22
2023-03-30T21:59:26.880Z,77300.38
2023-03-30T22:01:11.836Z,77296.41
2023-03-30T22:02:46.007Z,77292.44
2023-03-30T22:04:18.938Z,77276.63
2023-03-30T22:05:52.150Z,77264.75
2023-03-30T22:07:24.875Z,77260.81
2023-03-30T22:08:57.657Z,77254.88
2023-03-30T22:10:30.517Z,77245.00
2023-03-30T22:12:03.693Z,77237.06
2023-03-30T22:13:36.590Z,77239.06
2023-03-30T22:15:10.292Z,77245.00
2023-03-30T22:16:43.282Z,77274.66
2023-03-30T22:18:16.381Z,77248.94
2023-03-30T22:19:52.241Z,77254.88
2023-03-30T22:21:34.820Z,77260.81
2023-03-30T22:23:08.070Z,77252.91
2023-03-30T22:24:41.134Z,77256.84
2023-03-30T22:26:14.671Z,77256.84
2023-03-30T22:27:47.858Z,77256.84
2023-03-30T22:29:21.081Z,77237.06
2023-03-30T22:30:54.414Z,77233.13
2023-03-30T22:32:27.473Z,77229.16
2023-03-30T22:34:00.477Z,77221.25
2023-03-30T22:35:37.086Z,77199.50
2023-03-30T22:37:10.054Z,77197.53
2023-03-30T22:38:43.419Z,77272.69
2023-03-30T22:40:16.776Z,77193.56
2023-03-30T22:41:52.938Z,77197.53
2023-03-30T22:43:26.251Z,77201.47
2023-03-30T22:44:59.173Z,77191.59
2023-03-30T22:46:31.985Z,77201.47
2023-03-30T22:48:05.691Z,77225.22
2023-03-30T22:49:40.222Z,77195.53
2023-03-30T22:51:23.721Z,77195.53
2023-03-30T22:52:58.011Z,77185.66
2023-03-30T22:54:31.912Z,77185.66
2023-03-30T22:56:05.395Z,77195.53
2023-03-30T22:57:38.493Z,77185.66
2023-03-30T22:59:11.774Z,77199.50
2023-03-30T23:00:44.768Z,77175.78
2023-03-30T23:02:21.497Z,77163.91
2023-03-30T23:03:54.730Z,77154.00
2023-03-30T23:05:27.604Z,77156.00
2023-03-30T23:07:00.853Z,77150.06
2023-03-30T23:08:34.072Z,77140.16
2023-03-30T23:10:09.784Z,77126.31
2023-03-30T23:11:46.794Z,77124.34
2023-03-30T23:13:22.059Z,77118.41
2023-03-30T23:14:55.307Z,77126.31
2023-03-30T23:16:29.409Z,77128.31
2023-03-30T23:18:02.487Z,77114.47
2023-03-30T23:19:36.820Z,77118.41
2023-03-30T23:21:11.551Z,77104.56
2023-03-30T23:22:44.608Z,77102.59
2023-03-30T23:24:17.530Z,77098.63
2023-03-30T23:25:50.932Z,77106.56
2023-03-30T23:27:24.203Z,77108.53
2023-03-30T23:29:02.011Z,77110.50
2023-03-30T23:30:37.493Z,77094.69
2023-03-30T23:32:10.756Z,77094.69
2023-03-30T23:33:44.029Z,77098.63
2023-03-30T23:35:17.482Z,77104.56
2023-03-30T23:36:51.706Z,77096.66
2023-03-30T23:38:24.706Z,77094.69
2023-03-30T23:40:02.206Z,77078.88
2023-03-30T23:41:35.736Z,77084.78
2023-03-30T23:43:08.548Z,77088.75
2023-03-30T23:44:41.239Z,77080.84
2023-03-30T23:46:15.806Z,77074.91
2023-03-30T23:47:48.922Z,77084.78
2023-03-30T23:49:21.881Z,77086.78
2023-03-30T23:50:56.545Z,77080.84
2023-03-30T23:52:29.626Z,77084.78
2023-03-30T23:54:06.508Z,77072.94
2023-03-30T23:55:41.436Z,77082.81
2023-03-30T23:57:14.426Z,77078.88
2023-03-30T23:58:49.574Z,77072.94
